Terminal Aerodrome Forecast
Issued by NWS

Home | Current Version | Previous Version | Text Only | Print | Product List | Glossary On
Versions: 1 2 3 4 5 6 7 8 9 10 11 12 13
000
FTAK31 PAJN 261100
TAFAWG
TAF
PAWG 261130Z 2612/2712 14004KT P6SM -RA FEW010 OVC035
     FM262200 11006KT 6SM -RA SCT015 BKN030 OVC050
     FM270500 13004KT P6SM -RA FEW008 SCT015 OVC035
      AMD LTD TO CLD VIS AND WIND TIL 261500=

USA.gov is the U.S. government's official web portal to all federal, state and local government web resources and services.